Time;durP1;ratioP1;P1;durP2;ratioP2;P2;SDS_P1;SDS_P2;PMS_P1;PMS_P2;Temp;Humidity;BMP_temperature;BMP_pressure;BME280_temperature;BME280_humidity;BME280_pressure;Samples;Min_cycle;Max_cycle;Signal;HPM_P1;HPM_P2
2022/11/18 00:00:48;;;;;;;;;;;;;;;13.81;55.28;98139.59;4470113;32;34090;-64
2022/11/18 00:03:16;;;;;;;;;;;;;;;13.49;55.86;98149.44;4465673;32;33872;-66
2022/11/18 00:05:51;;;;;;;;;;;;;;;13.20;56.68;98143.78;4477154;32;34179;-65
2022/11/18 00:08:19;;;;;;;;;;;;;;;13.28;56.23;98138.41;4473748;32;31946;-65
2022/11/18 00:10:46;;;;;;;;;;;;;;;13.32;56.35;98138.88;4477520;32;34021;-65
2022/11/18 00:16:00;;;;;;;;;;;;;;;13.28;56.16;98131.16;4482023;31;34017;-67
2022/11/18 00:18:27;;;;;;;;;;;;;;;13.21;56.39;98134.69;4470492;32;34250;-65
2022/11/18 00:20:55;;;;;;;;;;;;;;;13.09;56.51;98141.41;4471512;32;34189;-66
2022/11/18 00:23:22;;;;;;;;;;;;;;;13.02;56.21;98143.94;4477140;32;35001;-64
2022/11/18 00:25:49;;;;;;;;;;;;;;;12.83;56.67;98137.06;4469763;32;34684;-66
2022/11/18 00:28:17;;;;;;;;;;;;;;;12.81;56.60;98123.00;4477489;32;34508;-66
2022/11/18 00:30:44;;;;;;;;;;;;;;;12.77;56.16;98125.16;4477964;32;34233;-67
2022/11/18 00:33:11;;;;;;;;;;;;;;;12.71;56.66;98122.31;4476943;32;35263;-66
2022/11/18 00:35:38;;;;;;;;;;;;;;;12.66;57.62;98127.34;4472255;32;34415;-65
2022/11/18 00:38:06;;;;;;;;;;;;;;;12.90;56.75;98126.50;4479287;32;32986;-66
2022/11/18 00:40:33;;;;;;;;;;;;;;;12.97;56.00;98116.75;4470907;32;33518;-69
2022/11/18 00:43:00;;;;;;;;;;;;;;;12.95;55.93;98121.47;4479388;32;34578;-66
2022/11/18 00:45:28;;;;;;;;;;;;;;;12.96;56.07;98107.84;4477528;32;34361;-68
2022/11/18 00:47:55;;;;;;;;;;;;;;;12.73;57.10;98113.06;4479731;32;33397;-66
2022/11/18 00:50:23;;;;;;;;;;;;;;;12.84;56.77;98117.28;4482012;31;34174;-65
2022/11/18 00:52:51;;;;;;;;;;;;;;;12.78;56.77;98113.44;4480891;32;33953;-65
2022/11/18 00:55:18;;;;;;;;;;;;;;;12.64;56.99;98122.12;4476419;32;35176;-66
2022/11/18 00:57:45;;;;;;;;;;;;;;;12.70;56.31;98121.47;4476759;32;33182;-66
2022/11/18 01:00:13;;;;;;;;;;;;;;;12.53;56.79;98131.38;4470369;32;33985;-68
2022/11/18 01:02:40;;;;;;;;;;;;;;;12.71;56.72;98127.66;4473881;32;34366;-66
2022/11/18 01:05:07;;;;;;;;;;;;;;;12.73;57.18;98125.66;4473322;32;34459;-66
2022/11/18 01:07:35;;;;;;;;;;;;;;;12.76;57.12;98123.47;4479387;32;34226;-66
2022/11/18 01:10:02;;;;;;;;;;;;;;;12.83;57.01;98118.28;4480347;32;34270;-66
2022/11/18 01:15:20;;;;;;;;;;;;;;;12.91;57.03;98104.03;4475431;32;34724;-68
2022/11/18 01:17:48;;;;;;;;;;;;;;;12.92;56.80;98097.63;4479826;32;33725;-66
2022/11/18 01:20:15;;;;;;;;;;;;;;;12.81;56.82;98096.16;4481746;32;34316;-65
2022/11/18 01:22:43;;;;;;;;;;;;;;;12.64;57.26;98086.41;4473790;32;34245;-66
2022/11/18 01:25:10;;;;;;;;;;;;;;;12.88;56.36;98080.19;4480390;32;33360;-66
2022/11/18 01:27:37;;;;;;;;;;;;;;;12.77;57.10;98079.50;4473795;32;34450;-65
2022/11/18 01:30:05;;;;;;;;;;;;;;;12.75;57.31;98078.03;4471048;32;33849;-66
2022/11/18 01:32:33;;;;;;;;;;;;;;;12.78;56.74;98075.84;4466581;32;34492;-66
2022/11/18 01:35:00;;;;;;;;;;;;;;;12.95;56.49;98075.81;4471529;32;33414;-65
2022/11/18 01:37:28;;;;;;;;;;;;;;;12.97;56.46;98073.78;4470770;31;33655;-65
2022/11/18 01:39:55;;;;;;;;;;;;;;;12.77;56.61;98079.50;4470129;32;33943;-65
2022/11/18 01:42:22;;;;;;;;;;;;;;;12.87;56.00;98084.69;4471925;32;34093;-65
2022/11/18 01:45:08;;;;;;;;;;;;;;;12.73;55.87;98094.28;4473603;32;34280;-64
2022/11/18 01:47:38;;;;;;;;;;;;;;;12.68;56.38;98083.22;4473769;32;33334;-65
2022/11/18 01:50:06;;;;;;;;;;;;;;;12.66;56.69;98087.09;4468450;32;33700;-67
2022/11/18 01:52:33;;;;;;;;;;;;;;;12.75;55.78;98089.59;4453552;32;34085;-64
2022/11/18 01:55:03;;;;;;;;;;;;;;;12.79;55.09;98093.63;4467503;32;33718;-64
2022/11/18 01:57:31;;;;;;;;;;;;;;;12.33;55.89;98113.91;4455301;32;34155;-64
2022/11/18 01:59:59;;;;;;;;;;;;;;;12.47;55.88;98104.34;4467074;32;34008;-64
2022/11/18 02:02:27;;;;;;;;;;;;;;;12.55;55.42;98102.53;4478040;32;34396;-64
2022/11/18 02:04:54;;;;;;;;;;;;;;;12.46;55.18;98100.00;4463520;32;35432;-64
2022/11/18 02:07:22;;;;;;;;;;;;;;;12.53;54.93;98091.09;4478172;32;33721;-64
2022/11/18 02:09:51;;;;;;;;;;;;;;;12.51;55.42;98097.66;4458829;32;34112;-64
2022/11/18 02:12:18;;;;;;;;;;;;;;;12.58;55.08;98087.91;4452485;32;35374;-64
2022/11/18 02:14:45;;;;;;;;;;;;;;;12.26;56.66;98083.34;4473112;32;34122;-64
2022/11/18 02:17:20;;;;;;;;;;;;;;;12.47;56.04;98089.09;4469421;32;33237;-70
2022/11/18 02:19:51;;;;;;;;;;;;;;;12.38;56.62;98083.88;4474764;32;34205;-66
2022/11/18 02:22:22;;;;;;;;;;;;;;;12.60;56.18;98075.16;4468908;32;33819;-66
2022/11/18 02:24:52;;;;;;;;;;;;;;;12.71;55.87;98069.47;4467652;32;33967;-67
2022/11/18 02:27:27;;;;;;;;;;;;;;;12.79;55.22;98068.62;4468535;32;32363;-66
2022/11/18 02:30:01;;;;;;;;;;;;;;;12.78;55.21;98066.94;4461709;32;35433;-65
2022/11/18 02:32:29;;;;;;;;;;;;;;;12.80;55.36;98067.59;4464305;32;32544;-66
2022/11/18 02:35:15;;;;;;;;;;;;;;;12.75;55.68;98067.28;4475577;32;34896;-65
2022/11/18 02:37:45;;;;;;;;;;;;;;;12.57;57.26;98060.25;4480776;32;33494;-65
2022/11/18 02:40:14;;;;;;;;;;;;;;;12.50;57.84;98043.13;4471847;32;34190;-66
2022/11/18 02:42:41;;;;;;;;;;;;;;;12.73;57.02;98037.09;4450012;32;34087;-65
2022/11/18 02:45:09;;;;;;;;;;;;;;;12.47;58.12;98023.84;4454929;32;34340;-66
2022/11/18 02:47:37;;;;;;;;;;;;;;;12.73;57.35;98024.50;4455555;32;33407;-65
2022/11/18 02:50:05;;;;;;;;;;;;;;;12.66;57.41;98014.63;4460393;32;33917;-68
2022/11/18 02:52:33;;;;;;;;;;;;;;;12.60;57.79;98018.81;4465236;32;33552;-67
2022/11/18 02:55:00;;;;;;;;;;;;;;;12.50;57.66;98015.47;4463296;32;34077;-67
2022/11/18 02:57:28;;;;;;;;;;;;;;;12.84;56.50;98026.00;4456317;32;34430;-65
2022/11/18 02:59:56;;;;;;;;;;;;;;;12.82;56.37;98034.22;4469511;32;34982;-65
2022/11/18 03:02:23;;;;;;;;;;;;;;;12.77;56.38;98033.87;4479239;32;33080;-65
2022/11/18 03:04:52;;;;;;;;;;;;;;;12.64;57.07;98035.41;4476889;32;33768;-65
2022/11/18 03:07:27;;;;;;;;;;;;;;;12.78;56.74;98030.19;4477257;32;33289;-66
2022/11/18 03:09:54;;;;;;;;;;;;;;;12.84;56.17;98034.06;4465036;32;35265;-65
2022/11/18 03:12:25;;;;;;;;;;;;;;;12.85;55.94;98030.34;4463560;32;34975;-65
2022/11/18 03:15:01;;;;;;;;;;;;;;;12.79;56.03;98039.09;4469125;32;34184;-65
2022/11/18 03:17:29;;;;;;;;;;;;;;;12.73;56.14;98055.88;4474511;32;33135;-65
2022/11/18 03:20:10;;;;;;;;;;;;;;;12.77;56.23;98047.28;4475605;32;33958;-65
2022/11/18 03:22:39;;;;;;;;;;;;;;;12.76;56.62;98050.16;4461166;32;34354;-64
2022/11/18 03:25:08;;;;;;;;;;;;;;;12.49;57.27;98051.38;4467590;32;33980;-65
2022/11/18 03:27:36;;;;;;;;;;;;;;;12.64;57.03;98049.66;4466286;32;33590;-65
2022/11/18 03:30:05;;;;;;;;;;;;;;;12.73;57.13;98055.88;4483393;32;35175;-64
2022/11/18 03:32:35;;;;;;;;;;;;;;;12.77;56.84;98067.94;4457368;32;33789;-65
2022/11/18 03:35:04;;;;;;;;;;;;;;;12.73;57.74;98055.88;4454199;32;34575;-64
2022/11/18 03:37:32;;;;;;;;;;;;;;;12.80;57.41;98052.31;4458391;32;31463;-65
2022/11/18 03:40:08;;;;;;;;;;;;;;;12.83;57.56;98056.53;4464501;32;34431;-66
2022/11/18 03:42:37;;;;;;;;;;;;;;;12.86;57.33;98058.03;4480724;32;32885;-64
2022/11/18 03:45:06;;;;;;;;;;;;;;;12.87;57.59;98057.03;4462691;32;34116;-66
2022/11/18 03:47:34;;;;;;;;;;;;;;;12.89;57.28;98071.13;4455731;32;33245;-64
2022/11/18 03:50:21;;;;;;;;;;;;;;;12.75;58.56;98075.34;4465417;32;34086;-64
2022/11/18 03:52:48;;;;;;;;;;;;;;;12.96;57.71;98070.25;4478831;32;33785;-64
2022/11/18 03:55:16;;;;;;;;;;;;;;;12.98;57.67;98072.78;4470606;32;34095;-65
2022/11/18 03:57:54;;;;;;;;;;;;;;;13.03;57.59;98060.53;4473717;32;33764;-65
2022/11/18 04:00:22;;;;;;;;;;;;;;;12.85;58.74;98049.16;4476170;32;34211;-66
2022/11/18 04:02:49;;;;;;;;;;;;;;;12.81;58.93;98043.28;4460885;32;34104;-64
2022/11/18 04:05:17;;;;;;;;;;;;;;;13.09;57.88;98044.72;4472345;32;32749;-65
2022/11/18 04:07:44;;;;;;;;;;;;;;;13.12;57.72;98037.16;4457106;32;32157;-65
2022/11/18 04:10:12;;;;;;;;;;;;;;;13.16;57.44;98034.97;4458336;32;34120;-68
2022/11/18 04:12:43;;;;;;;;;;;;;;;13.18;57.50;98025.72;4476670;32;34325;-65
2022/11/18 04:15:10;;;;;;;;;;;;;;;13.22;57.17;98018.16;4462883;32;33794;-66
2022/11/18 04:17:39;;;;;;;;;;;;;;;13.23;57.09;98007.25;4463140;32;33578;-66
2022/11/18 04:20:08;;;;;;;;;;;;;;;13.19;57.36;97997.88;4455020;32;34069;-65
2022/11/18 04:22:35;;;;;;;;;;;;;;;13.08;58.05;97992.84;4469761;32;34590;-66
2022/11/18 04:25:03;;;;;;;;;;;;;;;12.95;58.68;97993.41;4468705;32;33920;-67
2022/11/18 04:27:30;;;;;;;;;;;;;;;12.94;58.66;97989.06;4475563;32;33052;-65
2022/11/18 04:29:57;;;;;;;;;;;;;;;12.95;58.64;97981.81;4467342;32;33932;-66
2022/11/18 04:32:25;;;;;;;;;;;;;;;13.00;58.00;97982.13;4470061;32;33982;-66
2022/11/18 04:34:52;;;;;;;;;;;;;;;13.09;57.80;97981.09;4474696;32;34073;-65
2022/11/18 04:37:20;;;;;;;;;;;;;;;13.17;57.57;97980.25;4465546;32;32072;-65
2022/11/18 04:39:47;;;;;;;;;;;;;;;13.10;57.88;97981.94;4478736;32;34227;-65
2022/11/18 04:42:14;;;;;;;;;;;;;;;13.03;57.83;97990.72;4478434;32;32587;-65
2022/11/18 04:44:42;;;;;;;;;;;;;;;13.11;57.49;98000.56;4476040;32;34781;-65
2022/11/18 04:47:09;;;;;;;;;;;;;;;13.19;57.10;98013.13;4470845;32;33285;-65
2022/11/18 04:49:36;;;;;;;;;;;;;;;13.20;57.13;98007.59;4470860;32;35038;-64
2022/11/18 04:52:04;;;;;;;;;;;;;;;13.21;57.26;98014.63;4467536;32;33966;-65
2022/11/18 04:54:31;;;;;;;;;;;;;;;13.00;57.94;98025.09;4479031;32;33161;-64
2022/11/18 04:56:59;;;;;;;;;;;;;;;13.11;57.86;98026.59;4473593;32;34439;-66
2022/11/18 04:59:27;;;;;;;;;;;;;;;13.18;57.72;98031.09;4473456;32;32431;-64
2022/11/18 05:01:55;;;;;;;;;;;;;;;13.20;57.86;98015.66;4468897;32;34262;-64
2022/11/18 05:04:23;;;;;;;;;;;;;;;13.23;57.84;98015.31;4466440;32;32584;-64
2022/11/18 05:06:51;;;;;;;;;;;;;;;13.16;58.52;98019.72;4470221;32;34470;-65
2022/11/18 05:09:18;;;;;;;;;;;;;;;13.19;58.66;98005.06;4474470;32;32891;-65
2022/11/18 05:14:33;;;;;;;;;;;;;;;13.19;58.68;98002.38;4467279;32;34269;-65
2022/11/18 05:17:01;;;;;;;;;;;;;;;13.28;58.13;97996.00;4466163;32;34346;-65
2022/11/18 05:19:28;;;;;;;;;;;;;;;13.31;58.23;97987.59;4473448;32;33922;-64
2022/11/18 05:21:56;;;;;;;;;;;;;;;13.36;57.90;97982.53;4477778;32;35289;-65
2022/11/18 05:24:23;;;;;;;;;;;;;;;13.40;57.82;97983.03;4471183;32;34414;-64
2022/11/18 05:26:51;;;;;;;;;;;;;;;13.46;57.35;97985.84;4474282;32;34448;-65
2022/11/18 05:29:18;;;;;;;;;;;;;;;13.39;57.56;97984.88;4475131;32;35328;-65
2022/11/18 05:31:46;;;;;;;;;;;;;;;13.26;58.20;97988.13;4468210;32;32706;-64
2022/11/18 05:34:14;;;;;;;;;;;;;;;13.33;58.05;97996.31;4475529;32;33040;-66
2022/11/18 05:36:41;;;;;;;;;;;;;;;13.26;58.24;97992.66;4469238;32;33427;-65
2022/11/18 05:39:09;;;;;;;;;;;;;;;13.13;58.13;97990.50;4469964;32;32943;-64
2022/11/18 05:44:22;;;;;;;;;;;;;;;13.25;58.17;97989.13;4466584;32;34172;-65
2022/11/18 05:46:49;;;;;;;;;;;;;;;13.25;58.38;97991.81;4473942;32;33071;-66
2022/11/18 05:49:16;;;;;;;;;;;;;;;13.36;57.93;98000.53;4473133;32;34217;-66
2022/11/18 05:51:44;;;;;;;;;;;;;;;13.16;58.82;97983.91;4470455;32;32957;-65
2022/11/18 05:54:11;;;;;;;;;;;;;;;13.27;58.36;97986.28;4477733;32;32915;-65
2022/11/18 05:56:40;;;;;;;;;;;;;;;13.20;58.66;97991.47;4469250;32;33105;-64
2022/11/18 05:59:07;;;;;;;;;;;;;;;13.37;58.19;97992.28;4467967;32;34963;-66
2022/11/18 06:01:45;;;;;;;;;;;;;;;13.41;58.15;97998.97;4470792;32;34465;-64
2022/11/18 06:04:20;;;;;;;;;;;;;;;13.40;58.07;98004.53;4461318;32;34283;-65
2022/11/18 06:06:48;;;;;;;;;;;;;;;13.46;57.91;98007.34;4464734;32;33519;-66
2022/11/18 06:09:15;;;;;;;;;;;;;;;13.37;58.47;98010.25;4479225;32;33652;-65
2022/11/18 06:11:44;;;;;;;;;;;;;;;13.25;59.25;98005.25;4468128;32;34046;-66
2022/11/18 06:14:14;;;;;;;;;;;;;;;13.29;59.23;98003.06;4470714;32;34484;-65
2022/11/18 06:16:43;;;;;;;;;;;;;;;12.98;59.90;98002.97;4455037;32;33674;-66
2022/11/18 06:19:10;;;;;;;;;;;;;;;13.36;59.26;97993.28;4466900;32;33826;-65
2022/11/18 06:21:37;;;;;;;;;;;;;;;13.41;58.92;97984.69;4467856;32;34357;-64
2022/11/18 06:24:06;;;;;;;;;;;;;;;13.32;59.29;97983.06;4453909;32;34997;-64
2022/11/18 06:26:33;;;;;;;;;;;;;;;13.47;58.67;97981.31;4461349;32;32828;-63
2022/11/18 06:29:00;;;;;;;;;;;;;;;13.47;58.67;97975.94;4473148;32;32660;-63
2022/11/18 06:31:28;;;;;;;;;;;;;;;13.45;58.81;97975.25;4468323;32;33678;-64
2022/11/18 06:33:55;;;;;;;;;;;;;;;13.23;59.60;97980.38;4475397;32;33485;-64
2022/11/18 06:36:22;;;;;;;;;;;;;;;12.99;60.66;97967.03;4477751;32;33296;-64
2022/11/18 06:38:49;;;;;;;;;;;;;;;13.01;60.73;97968.53;4472755;32;33955;-64
2022/11/18 06:41:17;;;;;;;;;;;;;;;12.64;62.54;97965.63;4478762;32;35166;-63
2022/11/18 06:43:44;;;;;;;;;;;;;;;12.18;64.40;97970.72;4471354;32;32777;-64
2022/11/18 06:48:59;;;;;;;;;;;;;;;12.45;63.27;97989.13;4474075;32;34021;-65
2022/11/18 06:51:26;;;;;;;;;;;;;;;12.16;64.54;97988.81;4469500;32;34245;-64
2022/11/18 06:53:53;;;;;;;;;;;;;;;12.27;64.34;97996.53;4470083;32;34111;-63
2022/11/18 06:56:21;;;;;;;;;;;;;;;12.10;64.94;97983.13;4472171;32;34196;-63
2022/11/18 06:58:52;;;;;;;;;;;;;;;12.19;65.16;97988.47;4470512;32;35492;-64
2022/11/18 07:01:21;;;;;;;;;;;;;;;12.77;63.09;97990.09;4472829;32;35510;-64
2022/11/18 07:03:49;;;;;;;;;;;;;;;12.86;62.71;97986.38;4476191;32;34297;-64
2022/11/18 07:06:17;;;;;;;;;;;;;;;12.83;62.51;97978.66;4477868;32;33265;-63
2022/11/18 07:08:44;;;;;;;;;;;;;;;12.78;62.94;97999.84;4473068;32;34200;-63
2022/11/18 07:11:13;;;;;;;;;;;;;;;12.34;64.60;97997.53;4474112;32;34290;-63
2022/11/18 07:13:40;;;;;;;;;;;;;;;12.71;63.25;97997.00;4470320;32;32686;-64
2022/11/18 07:16:11;;;;;;;;;;;;;;;12.55;64.07;97980.91;4469120;32;33283;-65
2022/11/18 07:18:40;;;;;;;;;;;;;;;12.35;64.68;97969.69;4480216;32;34263;-64
2022/11/18 07:21:08;;;;;;;;;;;;;;;12.77;63.24;97976.66;4473577;32;37309;-64
2022/11/18 07:23:36;;;;;;;;;;;;;;;12.43;64.07;97979.59;4480482;32;34071;-64
2022/11/18 07:26:03;;;;;;;;;;;;;;;12.37;64.52;97972.22;4475405;32;33109;-64
2022/11/18 07:28:31;;;;;;;;;;;;;;;12.13;65.23;97957.78;4474212;32;33898;-64
2022/11/18 07:31:14;;;;;;;;;;;;;;;12.28;64.89;97968.69;4470273;32;34278;-64
2022/11/18 07:33:42;;;;;;;;;;;;;;;12.04;65.78;97966.87;4475044;32;33821;-64
2022/11/18 07:36:13;;;;;;;;;;;;;;;12.48;64.66;97963.81;4478664;32;33611;-64
2022/11/18 07:38:41;;;;;;;;;;;;;;;12.00;66.88;97969.03;4468661;32;33185;-68
2022/11/18 07:41:10;;;;;;;;;;;;;;;11.62;67.97;97970.44;4468517;32;35241;-65
2022/11/18 07:43:37;;;;;;;;;;;;;;;11.25;68.34;97970.88;4466577;32;33912;-66
2022/11/18 07:46:12;;;;;;;;;;;;;;;12.12;66.65;97965.00;4476164;32;33626;-66
2022/11/18 07:48:40;;;;;;;;;;;;;;;12.43;65.28;97960.81;4481899;32;33000;-65
2022/11/18 07:51:07;;;;;;;;;;;;;;;12.51;64.99;97958.09;4484159;32;35115;-67
2022/11/18 07:53:35;;;;;;;;;;;;;;;12.43;65.24;97958.97;4483006;32;34165;-65
2022/11/18 07:56:02;;;;;;;;;;;;;;;11.99;65.79;97953.13;4472502;32;33192;-66
2022/11/18 07:58:30;;;;;;;;;;;;;;;12.29;65.89;97957.78;4469289;32;33925;-66
2022/11/18 08:00:57;;;;;;;;;;;;;;;12.05;66.42;97955.12;4475875;32;35362;-66
2022/11/18 08:03:26;;;;;;;;;;;;;;;11.42;68.40;97959.19;4480764;32;33111;-66
2022/11/18 08:06:00;;;;;;;;;;;;;;;11.85;66.94;97950.09;4472401;32;33097;-66
2022/11/18 08:08:27;;;;;;;;;;;;;;;12.03;66.70;97952.59;4467463;32;33793;-66
2022/11/18 08:10:56;;;;;;;;;;;;;;;10.69;71.00;97959.75;4471506;32;33933;-66
2022/11/18 08:13:23;;;;;;;;;;;;;;;10.69;71.75;97957.91;4482555;32;37281;-66
2022/11/18 08:15:51;;;;;;;;;;;;;;;11.23;70.25;97954.94;4476645;32;33521;-65
2022/11/18 08:18:18;;;;;;;;;;;;;;;11.44;69.46;97941.13;4472379;32;34125;-67
2022/11/18 08:20:45;;;;;;;;;;;;;;;11.22;69.97;97950.59;4471936;32;34920;-67
2022/11/18 08:23:13;;;;;;;;;;;;;;;10.05;74.02;97943.09;4474163;32;35124;-66
2022/11/18 08:25:41;;;;;;;;;;;;;;;10.67;71.91;97945.69;4468636;32;32966;-67
2022/11/18 08:28:09;;;;;;;;;;;;;;;11.03;71.31;97950.87;4477949;32;34043;-67
2022/11/18 08:30:37;;;;;;;;;;;;;;;11.15;70.41;97945.06;4471909;32;33085;-66
2022/11/18 08:33:04;;;;;;;;;;;;;;;11.18;70.12;97946.59;4473896;32;35168;-66
2022/11/18 08:35:32;;;;;;;;;;;;;;;12.14;66.72;97943.41;4480336;32;34542;-65
2022/11/18 08:37:59;;;;;;;;;;;;;;;12.19;66.10;97930.31;4474922;32;32567;-67
2022/11/18 08:40:26;;;;;;;;;;;;;;;11.91;67.14;97926.28;4472811;32;34272;-66
2022/11/18 08:42:53;;;;;;;;;;;;;;;12.15;66.56;97914.75;4472423;32;35438;-67
2022/11/18 08:45:21;;;;;;;;;;;;;;;11.54;69.08;97914.19;4476319;32;34621;-66
2022/11/18 08:47:48;;;;;;;;;;;;;;;11.00;70.28;97924.41;4478899;32;34801;-65
2022/11/18 08:50:16;;;;;;;;;;;;;;;11.11;70.54;97914.25;4479417;32;34035;-65
2022/11/18 08:52:43;;;;;;;;;;;;;;;11.85;67.94;97901.03;4469496;32;34226;-67
2022/11/18 08:55:10;;;;;;;;;;;;;;;12.20;66.38;97899.81;4474005;32;33262;-66
2022/11/18 08:57:38;;;;;;;;;;;;;;;11.61;68.19;97894.59;4474380;32;33805;-66
2022/11/18 09:00:07;;;;;;;;;;;;;;;12.07;67.20;97899.47;4472650;32;34130;-66
2022/11/18 09:02:34;;;;;;;;;;;;;;;12.03;67.69;97904.34;4466963;32;33050;-66
2022/11/18 09:05:01;;;;;;;;;;;;;;;12.43;65.98;97910.66;4471030;32;32604;-66
2022/11/18 09:07:29;;;;;;;;;;;;;;;12.25;66.40;97915.38;4468682;32;35187;-67
2022/11/18 09:09:56;;;;;;;;;;;;;;;12.48;65.40;97919.03;4477191;32;34240;-68
2022/11/18 09:12:23;;;;;;;;;;;;;;;12.24;66.27;97927.13;4474904;32;34257;-66
2022/11/18 09:14:51;;;;;;;;;;;;;;;12.29;66.22;97930.97;4442463;32;831355;-64
2022/11/18 09:17:38;;;;;;;;;;;;;;;11.60;68.27;97925.06;4455500;32;34335;-66
2022/11/18 09:20:06;;;;;;;;;;;;;;;12.03;67.55;97920.44;4475050;32;34524;-67
2022/11/18 09:22:35;;;;;;;;;;;;;;;12.28;66.29;97907.84;4474178;32;32783;-67
2022/11/18 09:25:02;;;;;;;;;;;;;;;12.38;65.91;97901.44;4468922;32;34450;-65
2022/11/18 09:27:29;;;;;;;;;;;;;;;12.21;66.58;97892.59;4474591;32;35192;-65
2022/11/18 09:29:57;;;;;;;;;;;;;;;12.10;67.06;97891.97;4476339;32;34375;-67
2022/11/18 09:32:24;;;;;;;;;;;;;;;12.06;67.21;97882.56;4469469;32;34826;-64
2022/11/18 09:34:51;;;;;;;;;;;;;;;12.08;67.06;97880.56;4475414;32;34673;-66
2022/11/18 09:37:19;;;;;;;;;;;;;;;10.92;72.13;97879.75;4470569;32;35625;-65
2022/11/18 09:39:46;;;;;;;;;;;;;;;11.33;69.97;97883.34;4481225;32;34400;-66
2022/11/18 09:42:24;;;;;;;;;;;;;;;12.08;67.75;97872.50;4467509;32;33670;-67
2022/11/18 09:45:10;;;;;;;;;;;;;;;11.61;69.36;97883.88;4461909;32;33150;-66
2022/11/18 09:47:43;;;;;;;;;;;;;;;11.81;68.32;97883.53;4472036;32;35229;-67
2022/11/18 09:50:18;;;;;;;;;;;;;;;12.18;66.96;97883.06;4467310;32;32903;-69
2022/11/18 09:53:17;;;;;;;;;;;;;;;12.05;67.34;97872.00;4471021;32;33882;-67
2022/11/18 09:55:44;;;;;;;;;;;;;;;11.76;68.05;97859.09;4462937;32;32036;-65
2022/11/18 09:58:17;;;;;;;;;;;;;;;11.58;69.15;97843.19;4476407;32;34179;-65
2022/11/18 10:00:45;;;;;;;;;;;;;;;11.49;69.34;97841.50;4475092;32;35563;-66
2022/11/18 10:03:13;;;;;;;;;;;;;;;10.75;72.44;97838.69;4479231;32;33914;-66
2022/11/18 10:05:40;;;;;;;;;;;;;;;10.70;72.01;97827.66;4471206;32;33376;-66
2022/11/18 10:08:19;;;;;;;;;;;;;;;11.10;70.69;97834.94;4470381;32;32808;-67
2022/11/18 10:10:54;;;;;;;;;;;;;;;11.30;69.89;97830.13;4474053;32;33827;-67
2022/11/18 10:13:21;;;;;;;;;;;;;;;10.84;71.92;97831.53;4474565;32;32708;-69
2022/11/18 10:15:58;;;;;;;;;;;;;;;11.10;70.57;97836.75;4476109;32;34308;-66
2022/11/18 10:18:26;;;;;;;;;;;;;;;10.89;71.56;97838.06;4470075;32;34602;-67
2022/11/18 10:21:23;;;;;;;;;;;;;;;10.54;73.47;97844.47;4482710;32;32788;-68
2022/11/18 10:23:55;;;;;;;;;;;;;;;10.64;72.83;97844.34;4462577;32;33919;-65
2022/11/18 10:26:38;;;;;;;;;;;;;;;10.55;73.09;97832.75;4482847;32;33254;-65
2022/11/18 10:29:08;;;;;;;;;;;;;;;10.67;72.33;97838.66;4475733;32;32796;-66
2022/11/18 10:31:37;;;;;;;;;;;;;;;10.15;74.96;97836.06;4467937;32;34411;-66
2022/11/18 10:34:04;;;;;;;;;;;;;;;10.52;72.73;97827.72;4470390;32;34130;-66
2022/11/18 10:36:33;;;;;;;;;;;;;;;10.52;73.05;97829.56;4471125;32;33339;-66
2022/11/18 10:39:06;;;;;;;;;;;;;;;10.64;72.37;97826.44;4476208;32;33931;-66
2022/11/18 10:41:50;;;;;;;;;;;;;;;10.49;73.21;97828.06;4479135;32;33762;-66
2022/11/18 10:44:44;;;;;;;;;;;;;;;10.48;72.63;97821.03;4474744;32;35069;-65
2022/11/18 10:47:25;;;;;;;;;;;;;;;10.72;72.24;97822.94;4468819;32;33246;-66
2022/11/18 10:49:57;;;;;;;;;;;;;;;11.04;71.22;97821.34;4484292;32;34030;-66
2022/11/18 10:52:24;;;;;;;;;;;;;;;11.00;71.14;97812.81;4470448;32;33987;-65
2022/11/18 10:55:05;;;;;;;;;;;;;;;10.96;71.38;97815.00;4476756;32;34060;-66
2022/11/18 10:57:34;;;;;;;;;;;;;;;11.16;70.50;97812.84;4468675;32;32177;-67
2022/11/18 11:00:02;;;;;;;;;;;;;;;11.43;69.31;97822.44;4462043;32;35538;-66
2022/11/18 11:02:33;;;;;;;;;;;;;;;11.70;68.46;97816.91;4474706;32;35142;-66
2022/11/18 11:05:02;;;;;;;;;;;;;;;11.81;68.32;97821.87;4456149;32;34831;-66
2022/11/18 11:07:35;;;;;;;;;;;;;;;11.90;67.99;97823.59;4471495;32;33161;-66
2022/11/18 11:10:03;;;;;;;;;;;;;;;11.81;68.39;97809.34;4457109;32;33969;-65
2022/11/18 11:12:31;;;;;;;;;;;;;;;12.26;66.60;97820.50;4476007;32;34345;-65
2022/11/18 11:14:59;;;;;;;;;;;;;;;11.98;67.57;97826.28;4472810;32;33757;-66
2022/11/18 11:17:28;;;;;;;;;;;;;;;12.37;66.33;97830.88;4475407;32;34559;-68
2022/11/18 11:20:28;;;;;;;;;;;;;;;12.46;66.04;97829.84;4466156;32;34011;-68
2022/11/18 11:22:55;;;;;;;;;;;;;;;12.53;65.70;97838.03;4429431;32;34320;-65
2022/11/18 11:25:28;;;;;;;;;;;;;;;12.65;65.21;97844.69;4451171;32;34716;-67
2022/11/18 11:28:34;;;;;;;;;;;;;;;12.78;64.71;97838.75;4469381;32;32235;-66
2022/11/18 11:31:14;;;;;;;;;;;;;;;12.83;64.14;97839.88;4477304;32;33096;-64
2022/11/18 11:33:50;;;;;;;;;;;;;;;12.96;63.72;97835.81;4465664;32;34250;-65
2022/11/18 11:36:30;;;;;;;;;;;;;;;13.02;63.64;97833.25;4474938;32;34305;-65
2022/11/18 11:39:00;;;;;;;;;;;;;;;13.09;63.54;97819.13;4469661;32;31936;-65
2022/11/18 11:41:34;;;;;;;;;;;;;;;13.03;63.82;97826.03;4462202;32;33650;-64
2022/11/18 11:44:06;;;;;;;;;;;;;;;13.22;63.12;97824.72;4476415;32;34069;-66
2022/11/18 11:46:34;;;;;;;;;;;;;;;13.26;62.91;97821.56;4471451;32;34316;-67
2022/11/18 11:49:09;;;;;;;;;;;;;;;13.48;62.20;97819.88;4473463;32;33341;-66
2022/11/18 11:51:45;;;;;;;;;;;;;;;13.47;62.30;97820.06;4459645;32;34152;-64
2022/11/18 11:54:20;;;;;;;;;;;;;;;13.40;62.29;97817.25;4462542;32;35132;-64
2022/11/18 11:57:10;;;;;;;;;;;;;;;13.42;62.07;97804.47;4462817;32;34137;-65
2022/11/18 11:59:44;;;;;;;;;;;;;;;13.51;61.56;97805.22;4456440;32;34247;-64
2022/11/18 12:02:15;;;;;;;;;;;;;;;13.44;61.95;97806.97;4474933;32;34037;-64
2022/11/18 12:04:50;;;;;;;;;;;;;;;13.53;61.68;97813.97;4472865;32;34065;-64
2022/11/18 12:07:18;;;;;;;;;;;;;;;13.52;61.81;97817.69;4458692;32;34541;-66
2022/11/18 12:10:01;;;;;;;;;;;;;;;13.53;61.81;97816.66;4468509;32;33437;-64
2022/11/18 12:12:34;;;;;;;;;;;;;;;13.56;61.61;97818.16;4480021;32;34867;-65
2022/11/18 12:15:20;;;;;;;;;;;;;;;13.25;62.15;97811.81;4461505;32;34238;-64
2022/11/18 12:18:07;;;;;;;;;;;;;;;13.57;61.41;97812.56;4474489;32;33561;-63
2022/11/18 12:20:36;;;;;;;;;;;;;;;13.43;61.53;97805.31;4472363;32;31571;-63
2022/11/18 12:23:11;;;;;;;;;;;;;;;13.28;62.05;97797.19;4472259;32;33531;-64
2022/11/18 12:25:44;;;;;;;;;;;;;;;13.37;61.67;97789.91;4474230;32;32724;-66
2022/11/18 12:28:21;;;;;;;;;;;;;;;13.29;61.64;97782.75;4478112;32;34162;-65
2022/11/18 12:30:48;;;;;;;;;;;;;;;13.11;62.42;97774.94;4465446;32;33362;-63
2022/11/18 12:33:16;;;;;;;;;;;;;;;13.15;62.21;97772.75;4459321;32;33934;-64
2022/11/18 12:35:46;;;;;;;;;;;;;;;13.38;61.33;97773.59;4459689;32;32864;-65
2022/11/18 12:38:30;;;;;;;;;;;;;;;13.25;61.86;97771.50;4473473;32;32862;-64
2022/11/18 12:40:57;;;;;;;;;;;;;;;13.22;62.24;97768.31;4471108;32;34078;-64
2022/11/18 12:46:26;;;;;;;;;;;;;;;12.94;63.17;97768.87;4472198;32;34391;-66
2022/11/18 12:48:53;;;;;;;;;;;;;;;13.20;62.19;97775.75;4473345;32;34147;-64
2022/11/18 12:51:20;;;;;;;;;;;;;;;13.19;61.96;97782.97;4475083;32;31984;-64
2022/11/18 12:53:48;;;;;;;;;;;;;;;12.82;63.32;97775.66;4461678;32;33831;-63
2022/11/18 12:56:15;;;;;;;;;;;;;;;13.14;62.17;97779.97;4471019;31;34398;-64
2022/11/18 12:58:43;;;;;;;;;;;;;;;12.82;63.24;97786.38;4455479;32;32699;-65
2022/11/18 13:01:11;;;;;;;;;;;;;;;13.13;62.08;97794.44;4463048;32;33282;-65
2022/11/18 13:03:39;;;;;;;;;;;;;;;12.59;63.92;97792.53;4468902;32;33350;-62
2022/11/18 13:06:18;;;;;;;;;;;;;;;12.72;63.37;97799.19;4470838;32;34207;-64
2022/11/18 13:08:50;;;;;;;;;;;;;;;13.25;61.61;97806.44;4470547;32;34009;-65
2022/11/18 13:19:36;;;;;;;;;;;;;;;13.79;60.12;97818.94;4476210;32;33498;-66
2022/11/18 13:24:58;;;;;;;;;;;;;;;13.68;60.56;97832.84;4463521;32;35075;-66
2022/11/18 13:27:44;;;;;;;;;;;;;;;13.75;59.65;97831.09;4475987;32;34186;-65
2022/11/18 13:30:12;;;;;;;;;;;;;;;13.59;60.14;97833.91;4473398;32;33698;-64